KRRL

Merrill Municipal Airport

Merrill, Wisconsin, USA
METAR KRRL 181115Z AUTO 00000KT 10SM CLR M06/M07 A3043 RMK AO2 T10621068 TSNO
Observed Flight Rules
Oct-18 @ 11:15 UTC (15 minutes ago) Visual Flight Rules
Visibility Clouds
10 miles
  • Clear skies
Temperatures Readings
Current -6°C / 21°F
Dewpoint -7°C / 19°F
Humidity 93%
Altimeter 30.43" Hg
Pressure 1030 hPa
Elevation 401
METAR KRRL 181115Z AUTO 00000KT 10SM CLR M06/M07 A3043 RMK AO2 T10621068 TSNO
Observed Flight Rules
Oct-18 @ 11:15 UTC
(15 minutes ago)
VFR
Clouds
  • Clear skies
Temperature Dewpoint
-6°C / 21°F -7°C / 19°F
Humidity Altimeter Pressure
93% 30.43" Hg 1030 hPa